Time;durP1;ratioP1;P1;durP2;ratioP2;P2;SDS_P1;SDS_P2;PMS_P1;PMS_P2;Temp;Humidity;BMP_temperature;BMP_pressure;BME280_temperature;BME280_humidity;BME280_pressure;Samples;Min_cycle;Max_cycle;Signal;HPM_P1;HPM_P2
2023/04/03 00:03:04;;;;;;;4.80;2.83;;;1.40;99.90;;;;;;5066429;28;20511;-66
2023/04/03 00:05:32;;;;;;;4.57;2.97;;;1.40;99.90;;;;;;5058801;28;22951;-65
2023/04/03 00:08:01;;;;;;;4.90;2.90;;;1.30;99.90;;;;;;5062201;28;20485;-66
2023/04/03 00:10:30;;;;;;;3.57;2.60;;;1.30;99.90;;;;;;5059131;28;20499;-66
2023/04/03 00:12:58;;;;;;;4.53;3.07;;;1.30;99.90;;;;;;5069579;28;21019;-67
2023/04/03 00:15:27;;;;;;;5.10;2.63;;;1.30;99.90;;;;;;5060689;28;23847;-66
2023/04/03 00:17:55;;;;;;;2.60;2.40;;;1.30;99.90;;;;;;5062346;28;20484;-66
2023/04/03 00:20:23;;;;;;;4.50;2.83;;;1.30;99.90;;;;;;5078997;28;20484;-66
2023/04/03 00:22:51;;;;;;;2.70;2.30;;;1.30;99.90;;;;;;5072364;28;21008;-65
2023/04/03 00:25:19;;;;;;;4.30;2.83;;;1.20;99.90;;;;;;5079432;28;20522;-65
2023/04/03 00:27:46;;;;;;;3.90;2.70;;;1.20;99.90;;;;;;5073665;28;20559;-66
2023/04/03 00:30:16;;;;;;;7.23;3.03;;;1.20;99.90;;;;;;5061197;28;20827;-66
2023/04/03 00:32:45;;;;;;;4.17;2.80;;;1.20;99.90;;;;;;5063257;28;21639;-66
2023/04/03 00:35:15;;;;;;;3.33;2.70;;;1.20;99.90;;;;;;5060270;28;20981;-67
2023/04/03 00:37:43;;;;;;;6.70;2.87;;;1.20;99.90;;;;;;5056865;28;20547;-66
2023/04/03 00:40:13;;;;;;;7.40;2.70;;;1.20;99.90;;;;;;5057810;28;20488;-66
2023/04/03 00:42:43;;;;;;;7.10;2.60;;;1.20;99.90;;;;;;5056908;28;20480;-64
2023/04/03 00:45:32;;;;;;;4.73;3.20;;;1.20;99.90;;;;;;5063970;28;20495;-66
2023/04/03 00:48:05;;;;;;;3.50;3.20;;;1.10;99.90;;;;;;5060943;28;20485;-66
2023/04/03 00:50:36;;;;;;;4.07;2.93;;;1.10;99.90;;;;;;5075277;28;20519;-66
2023/04/03 00:53:05;;;;;;;4.30;2.77;;;1.10;99.90;;;;;;5076537;28;20465;-65
2023/04/03 00:55:34;;;;;;;3.90;3.07;;;1.10;99.90;;;;;;5078838;28;20473;-66
2023/04/03 00:58:03;;;;;;;7.07;3.00;;;1.10;99.90;;;;;;5067888;28;20493;-66
2023/04/03 01:00:31;;;;;;;3.10;2.80;;;1.00;99.90;;;;;;5065377;28;20496;-65
2023/04/03 01:03:00;;;;;;;3.90;2.77;;;1.00;99.90;;;;;;5060703;28;20468;-66
2023/04/03 01:05:29;;;;;;;4.37;2.63;;;1.00;99.90;;;;;;5063248;28;20623;-66
2023/04/03 01:07:58;;;;;;;4.20;3.10;;;1.00;99.90;;;;;;5058622;28;20617;-69
2023/04/03 01:10:27;;;;;;;2.67;2.47;;;1.00;99.90;;;;;;5061237;28;20489;-65
2023/04/03 01:12:54;;;;;;;3.33;2.47;;;1.00;99.90;;;;;;5067469;28;20493;-65
2023/04/03 01:15:26;;;;;;;3.73;2.40;;;0.90;99.90;;;;;;5068599;28;20471;-66
2023/04/03 01:18:04;;;;;;;2.97;2.40;;;0.90;99.90;;;;;;5059835;28;22132;-66
2023/04/03 01:21:06;;;;;;;4.13;2.27;;;0.90;99.90;;;;;;5062467;28;20584;-65
2023/04/03 01:23:47;;;;;;;6.10;2.67;;;0.90;99.90;;;;;;5073382;28;20665;-66
2023/04/03 01:26:15;;;;;;;3.70;2.63;;;0.90;99.90;;;;;;5065270;28;20779;-66
2023/04/03 01:28:43;;;;;;;2.70;2.47;;;0.90;99.90;;;;;;5073588;28;20522;-66
2023/04/03 01:31:19;;;;;;;5.90;2.80;;;0.90;99.90;;;;;;5068877;28;21017;-65
2023/04/03 01:33:49;;;;;;;3.30;2.63;;;0.90;99.90;;;;;;5056426;28;20465;-66
2023/04/03 01:36:20;;;;;;;4.10;3.20;;;0.80;99.90;;;;;;5061231;28;20483;-64
2023/04/03 01:38:48;;;;;;;3.33;2.43;;;0.80;99.90;;;;;;5058958;28;20473;-66
2023/04/03 01:41:17;;;;;;;3.67;3.10;;;0.80;99.90;;;;;;5055719;28;20502;-66
2023/04/03 01:43:45;;;;;;;3.87;2.90;;;0.80;99.90;;;;;;5056134;28;20477;-65
2023/04/03 01:46:13;;;;;;;3.73;2.77;;;0.80;99.90;;;;;;5056472;28;20473;-64
2023/04/03 01:48:41;;;;;;;4.50;2.80;;;0.80;99.90;;;;;;5060779;28;20483;-66
2023/04/03 01:51:12;;;;;;;3.03;2.50;;;0.80;99.90;;;;;;5051344;28;20522;-66
2023/04/03 01:53:40;;;;;;;4.27;2.80;;;0.80;99.90;;;;;;5067586;28;20551;-64
2023/04/03 01:56:08;;;;;;;5.03;2.90;;;0.70;99.90;;;;;;5058249;28;20464;-66
2023/04/03 01:58:36;;;;;;;4.90;2.80;;;0.70;99.90;;;;;;5055445;28;20473;-64
2023/04/03 02:01:05;;;;;;;6.20;2.70;;;0.70;99.90;;;;;;5058424;28;20503;-65
2023/04/03 02:03:33;;;;;;;4.33;2.93;;;0.70;99.90;;;;;;5054358;28;20473;-65
2023/04/03 02:06:01;;;;;;;4.80;2.97;;;0.70;99.90;;;;;;5060024;28;20472;-66
2023/04/03 02:08:30;;;;;;;4.27;2.83;;;0.70;99.90;;;;;;5056457;28;20511;-64
2023/04/03 02:10:58;;;;;;;3.00;2.70;;;0.70;99.90;;;;;;5051086;28;20495;-64
2023/04/03 02:13:26;;;;;;;6.00;2.97;;;0.70;99.90;;;;;;5059240;28;20480;-66
2023/04/03 02:15:54;;;;;;;5.03;2.90;;;0.70;99.90;;;;;;5061239;28;20992;-66
2023/04/03 02:18:22;;;;;;;4.53;2.97;;;0.70;99.90;;;;;;5060369;28;20484;-66
2023/04/03 02:20:50;;;;;;;4.60;2.87;;;0.70;99.90;;;;;;5075643;28;21001;-66
2023/04/03 02:23:18;;;;;;;3.60;2.40;;;0.70;99.90;;;;;;5071724;28;20560;-66
2023/04/03 02:25:48;;;;;;;4.17;2.70;;;0.70;99.90;;;;;;5076252;28;20464;-66
2023/04/03 02:28:16;;;;;;;4.03;2.80;;;0.70;99.90;;;;;;5058824;28;20496;-66
2023/04/03 02:30:44;;;;;;;4.30;2.70;;;0.70;99.90;;;;;;5064441;28;20487;-69
2023/04/03 02:33:13;;;;;;;4.87;2.77;;;0.70;99.90;;;;;;5075652;28;21663;-66
2023/04/03 02:35:40;;;;;;;3.90;2.73;;;0.60;99.90;;;;;;5065065;28;20465;-65
2023/04/03 02:38:09;;;;;;;2.63;2.40;;;0.70;99.90;;;;;;5055444;28;20480;-66
2023/04/03 02:40:36;;;;;;;4.60;2.70;;;0.60;99.90;;;;;;5066357;28;20526;-64
2023/04/03 02:43:06;;;;;;;3.57;2.37;;;0.60;99.90;;;;;;5060986;28;20473;-65
2023/04/03 02:45:35;;;;;;;3.53;2.70;;;0.60;99.90;;;;;;5057346;28;21405;-66
2023/04/03 02:48:03;;;;;;;5.17;2.67;;;0.60;99.90;;;;;;5058923;28;21016;-67
2023/04/03 02:50:31;;;;;;;3.70;2.50;;;0.60;99.90;;;;;;5055456;28;20545;-66
2023/04/03 02:52:59;;;;;;;4.43;2.57;;;0.60;99.90;;;;;;5057578;28;21116;-66
2023/04/03 02:55:27;;;;;;;2.80;2.50;;;0.60;99.90;;;;;;5076535;28;20476;-66
2023/04/03 02:57:55;;;;;;;3.97;2.47;;;0.60;99.90;;;;;;5063853;28;20485;-65
2023/04/03 03:00:24;;;;;;;3.87;2.60;;;0.50;99.90;;;;;;5056122;28;20507;-66
2023/04/03 03:02:52;;;;;;;4.90;2.60;;;0.50;99.90;;;;;;5064289;28;20500;-66
2023/04/03 03:05:21;;;;;;;5.13;2.50;;;0.50;99.90;;;;;;5060299;28;20469;-66
2023/04/03 03:07:49;;;;;;;4.10;3.00;;;0.50;99.90;;;;;;5066387;28;20579;-66
2023/04/03 03:10:17;;;;;;;2.93;2.63;;;0.50;99.90;;;;;;5074975;28;20469;-66
2023/04/03 03:12:45;;;;;;;5.87;2.70;;;0.50;99.90;;;;;;5064585;28;20472;-66
2023/04/03 03:15:13;;;;;;;4.87;3.00;;;0.50;99.90;;;;;;5070996;28;20480;-66
2023/04/03 03:17:42;;;;;;;5.83;2.40;;;0.40;99.90;;;;;;5058493;28;20496;-65
2023/04/03 03:20:13;;;;;;;3.40;2.50;;;0.40;99.90;;;;;;5073913;28;20469;-65
2023/04/03 03:22:42;;;;;;;3.07;2.60;;;0.40;99.90;;;;;;5058976;28;20495;-64
2023/04/03 03:25:10;;;;;;;3.70;2.80;;;0.40;99.90;;;;;;5071809;28;20468;-66
2023/04/03 03:27:38;;;;;;;5.00;3.07;;;0.40;99.90;;;;;;5063379;28;20901;-67
2023/04/03 03:30:07;;;;;;;3.90;3.10;;;0.40;99.90;;;;;;5062928;28;20475;-66
2023/04/03 03:32:35;;;;;;;4.10;2.60;;;0.30;99.90;;;;;;5059647;28;20953;-65
2023/04/03 03:35:05;;;;;;;3.33;2.90;;;0.30;99.90;;;;;;5079710;28;20980;-66
2023/04/03 03:37:33;;;;;;;6.43;3.10;;;0.30;99.90;;;;;;5073081;28;20499;-66
2023/04/03 03:40:01;;;;;;;4.10;3.07;;;0.30;99.90;;;;;;5054468;28;20472;-66
2023/04/03 03:42:29;;;;;;;4.47;3.40;;;0.20;99.90;;;;;;5064253;28;20527;-66
2023/04/03 03:44:57;;;;;;;4.10;3.17;;;0.20;99.90;;;;;;5062169;28;20469;-66
2023/04/03 03:47:26;;;;;;;3.37;2.80;;;0.20;99.90;;;;;;5057836;28;20500;-65
2023/04/03 03:49:54;;;;;;;7.70;2.90;;;0.20;99.90;;;;;;5072085;28;20594;-66
2023/04/03 03:52:23;;;;;;;10.00;3.23;;;0.20;99.90;;;;;;5063311;28;21241;-66
2023/04/03 03:54:51;;;;;;;7.30;3.20;;;0.20;99.90;;;;;;5072754;28;20464;-66
2023/04/03 03:57:19;;;;;;;3.60;2.80;;;0.20;99.90;;;;;;5058326;28;20497;-64
2023/04/03 03:59:48;;;;;;;3.73;3.03;;;0.20;99.90;;;;;;5058455;28;20484;-64
2023/04/03 04:02:16;;;;;;;4.90;3.40;;;0.10;99.90;;;;;;5061479;28;20512;-66
2023/04/03 04:04:44;;;;;;;4.80;3.27;;;0.10;99.90;;;;;;5069033;28;20502;-66
2023/04/03 04:07:12;;;;;;;4.30;3.07;;;0.10;99.90;;;;;;5056684;28;20530;-66
2023/04/03 04:09:42;;;;;;;4.50;2.80;;;0.10;99.90;;;;;;5064448;28;20499;-66
2023/04/03 04:12:09;;;;;;;4.70;3.40;;;0.10;99.90;;;;;;5062210;28;20495;-67
2023/04/03 04:14:37;;;;;;;4.53;3.10;;;0.10;99.90;;;;;;5061074;28;20476;-66
2023/04/03 04:17:05;;;;;;;4.97;2.83;;;0.10;99.90;;;;;;5059785;28;20931;-65
2023/04/03 04:19:34;;;;;;;4.20;3.40;;;0.00;99.90;;;;;;5060516;28;20511;-66
2023/04/03 04:22:02;;;;;;;4.00;3.17;;;0.00;99.90;;;;;;5083578;28;20492;-67
2023/04/03 04:24:30;;;;;;;9.03;3.70;;;0.00;99.90;;;;;;5077244;28;20469;-65
2023/04/03 04:26:59;;;;;;;6.03;3.73;;;0.00;99.90;;;;;;5058213;28;20492;-66
2023/04/03 04:29:27;;;;;;;4.97;3.47;;;0.00;99.90;;;;;;5062121;28;20479;-66
2023/04/03 04:31:55;;;;;;;5.77;3.23;;;0.00;99.90;;;;;;5058232;28;20488;-65
2023/04/03 04:34:23;;;;;;;5.13;3.57;;;-0.10;99.90;;;;;;5066821;28;20476;-66
2023/04/03 04:36:51;;;;;;;5.00;3.33;;;0.00;99.90;;;;;;5075976;28;20481;-67
2023/04/03 04:39:19;;;;;;;3.77;3.07;;;0.00;99.90;;;;;;5073326;28;20474;-68
2023/04/03 04:41:47;;;;;;;5.17;3.50;;;0.00;99.90;;;;;;5056125;28;20506;-67
2023/04/03 04:44:16;;;;;;;5.27;2.97;;;-0.10;99.90;;;;;;5060371;28;20475;-66
2023/04/03 04:46:45;;;;;;;5.10;3.50;;;-0.10;99.90;;;;;;5055896;28;20542;-65
2023/04/03 04:49:13;;;;;;;4.27;3.43;;;-0.10;99.90;;;;;;5069687;28;20477;-65
2023/04/03 04:51:41;;;;;;;5.50;3.17;;;-0.10;99.90;;;;;;5072272;28;20489;-66
2023/04/03 04:54:19;;;;;;;4.83;3.50;;;-0.10;99.90;;;;;;5068916;28;20889;-66
2023/04/03 04:56:46;;;;;;;4.83;3.03;;;-0.10;99.90;;;;;;5068651;28;20486;-65
2023/04/03 04:59:16;;;;;;;6.00;3.53;;;-0.10;99.90;;;;;;5061385;28;20860;-65
2023/04/03 05:02:16;;;;;;;2.90;2.60;;;-0.10;99.90;;;;;;5067762;28;20558;-67
2023/04/03 05:04:44;;;;;;;7.50;3.87;;;-0.10;99.90;;;;;;5053814;28;20480;-67
2023/04/03 05:07:12;;;;;;;5.87;3.57;;;-0.10;99.90;;;;;;5069229;28;20580;-65
2023/04/03 05:09:42;;;;;;;3.90;3.30;;;-0.10;99.90;;;;;;5064669;28;20891;-67
2023/04/03 05:12:10;;;;;;;5.30;3.63;;;-0.10;99.90;;;;;;5075653;28;20494;-66
2023/04/03 05:14:39;;;;;;;6.30;4.00;;;-0.10;99.90;;;;;;5075584;28;21008;-66
2023/04/03 05:17:07;;;;;;;5.17;3.87;;;-0.10;99.90;;;;;;5075782;28;20493;-67
2023/04/03 05:19:35;;;;;;;5.70;3.87;;;0.00;99.90;;;;;;5075701;28;20468;-66
2023/04/03 05:22:03;;;;;;;5.77;3.70;;;0.00;99.90;;;;;;5067811;28;20954;-66
2023/04/03 05:24:31;;;;;;;4.13;3.67;;;0.00;99.90;;;;;;5071621;28;20474;-66
2023/04/03 05:26:58;;;;;;;6.30;4.40;;;0.00;99.90;;;;;;5064595;28;20493;-66
2023/04/03 05:29:26;;;;;;;6.47;3.97;;;0.00;99.90;;;;;;5065561;28;20464;-69
2023/04/03 05:31:56;;;;;;;5.73;3.80;;;0.00;99.90;;;;;;5066783;28;20504;-67
2023/04/03 05:34:24;;;;;;;4.77;3.70;;;0.00;99.90;;;;;;5060022;28;21024;-66
2023/04/03 05:36:52;;;;;;;5.37;4.37;;;0.10;99.90;;;;;;5063284;28;20488;-67
2023/04/03 05:39:20;;;;;;;5.23;4.10;;;0.10;99.90;;;;;;5062979;28;20565;-66
2023/04/03 05:41:48;;;;;;;8.93;4.70;;;0.10;99.90;;;;;;5074598;28;20522;-67
2023/04/03 05:44:16;;;;;;;6.17;4.10;;;0.20;99.90;;;;;;5063355;28;20475;-67
2023/04/03 05:46:44;;;;;;;5.40;4.47;;;0.20;99.90;;;;;;5070195;28;20481;-66
2023/04/03 05:49:14;;;;;;;8.50;4.90;;;0.20;99.90;;;;;;5071560;28;20469;-67
2023/04/03 05:51:42;;;;;;;6.30;4.60;;;0.20;99.90;;;;;;5067427;28;20580;-68
2023/04/03 05:54:13;;;;;;;4.83;3.63;;;0.30;99.90;;;;;;5073384;28;20469;-66
2023/04/03 05:56:41;;;;;;;6.37;4.50;;;0.30;99.90;;;;;;5073481;28;20488;-67
2023/04/03 05:59:09;;;;;;;5.40;3.80;;;0.40;99.90;;;;;;5064620;28;20464;-66
2023/04/03 06:01:37;;;;;;;4.90;4.00;;;0.40;99.90;;;;;;5055966;28;20496;-66
2023/04/03 06:04:08;;;;;;;5.90;4.93;;;0.50;99.90;;;;;;5061060;28;21020;-67
2023/04/03 06:06:51;;;;;;;4.47;4.07;;;0.50;99.90;;;;;;5065824;28;20488;-67
2023/04/03 06:09:20;;;;;;;6.23;3.97;;;0.60;99.90;;;;;;5059664;28;20468;-66
2023/04/03 06:11:48;;;;;;;6.27;4.37;;;0.60;99.90;;;;;;5063379;28;20491;-66
2023/04/03 06:14:16;;;;;;;4.30;3.87;;;0.70;99.90;;;;;;5056752;28;20477;-66
2023/04/03 06:16:44;;;;;;;4.83;3.30;;;0.70;99.90;;;;;;5059679;28;20499;-67
2023/04/03 06:19:13;;;;;;;7.63;4.03;;;0.80;99.90;;;;;;5067066;28;20465;-66
2023/04/03 06:21:42;;;;;;;4.67;3.20;;;0.80;99.90;;;;;;5057566;28;20496;-67
2023/04/03 06:24:15;;;;;;;5.80;3.87;;;0.90;99.90;;;;;;5081316;28;20471;-67
2023/04/03 06:26:43;;;;;;;4.20;2.93;;;1.00;99.90;;;;;;5075194;28;20476;-67
2023/04/03 06:29:11;;;;;;;5.10;4.23;;;1.00;99.90;;;;;;5086750;28;20469;-66
2023/04/03 06:31:39;;;;;;;4.80;3.47;;;1.10;99.90;;;;;;5081731;28;20492;-67
2023/04/03 06:34:08;;;;;;;3.87;3.30;;;1.20;99.90;;;;;;5079152;28;20469;-67
2023/04/03 06:36:36;;;;;;;5.67;3.30;;;1.30;99.90;;;;;;5085042;28;20488;-67
2023/04/03 06:39:04;;;;;;;4.90;3.90;;;1.30;99.90;;;;;;5078805;28;20469;-66
2023/04/03 06:41:34;;;;;;;6.83;4.20;;;1.40;99.90;;;;;;5087156;28;20503;-67
2023/04/03 06:44:04;;;;;;;3.50;3.10;;;1.50;99.90;;;;;;5085590;28;20499;-67
2023/04/03 06:46:32;;;;;;;5.20;3.70;;;1.60;99.90;;;;;;5073712;28;20489;-67
2023/04/03 06:49:00;;;;;;;7.03;3.67;;;1.60;99.90;;;;;;5084083;28;20984;-66
2023/04/03 06:51:29;;;;;;;4.50;3.60;;;1.70;99.90;;;;;;5085268;28;20484;-66
2023/04/03 06:53:59;;;;;;;4.70;3.00;;;1.80;99.90;;;;;;5071773;28;21379;-66
2023/04/03 06:56:28;;;;;;;3.10;2.70;;;1.90;99.90;;;;;;5062202;28;20491;-66
2023/04/03 06:58:58;;;;;;;3.93;3.10;;;2.00;99.90;;;;;;5052417;28;20488;-66
2023/04/03 07:01:27;;;;;;;5.57;3.50;;;2.10;99.90;;;;;;5062711;28;20500;-66
2023/04/03 07:03:56;;;;;;;5.50;2.87;;;2.10;99.90;;;;;;5066922;28;20492;-66
2023/04/03 07:06:26;;;;;;;3.87;2.90;;;2.20;99.90;;;;;;5062517;28;20502;-67
2023/04/03 07:08:55;;;;;;;3.20;2.90;;;2.30;99.90;;;;;;5065930;28;20988;-66
2023/04/03 07:11:23;;;;;;;3.50;2.27;;;2.40;99.90;;;;;;5058851;28;20607;-66
2023/04/03 07:13:51;;;;;;;3.20;2.80;;;2.40;99.90;;;;;;5058788;28;20468;-66
2023/04/03 07:16:21;;;;;;;2.87;2.60;;;2.50;99.90;;;;;;5057817;28;20598;-68
2023/04/03 07:18:50;;;;;;;5.77;3.70;;;2.60;99.90;;;;;;5061909;28;20475;-65
2023/04/03 07:21:18;;;;;;;5.13;2.27;;;2.70;99.90;;;;;;5055502;28;21607;-66
2023/04/03 07:23:46;;;;;;;2.40;2.07;;;2.80;99.90;;;;;;5075479;28;20484;-66
2023/04/03 07:26:20;;;;;;;2.53;1.90;;;2.90;99.90;;;;;;5076032;28;20465;-66
2023/04/03 07:28:49;;;;;;;3.60;2.13;;;3.00;99.90;;;;;;5076840;28;20468;-66
2023/04/03 07:31:20;;;;;;;2.57;1.77;;;3.10;99.90;;;;;;5065351;28;21103;-67
2023/04/03 07:33:48;;;;;;;3.93;2.60;;;3.20;99.90;;;;;;5062489;28;20631;-67
2023/04/03 07:36:19;;;;;;;1.70;1.60;;;3.30;99.90;;;;;;5061693;28;20476;-66
2023/04/03 07:38:47;;;;;;;4.47;1.60;;;3.30;99.90;;;;;;5059105;28;20474;-67
2023/04/03 07:41:17;;;;;;;4.17;1.80;;;3.40;99.90;;;;;;5061084;28;20507;-66
2023/04/03 07:43:46;;;;;;;3.33;1.77;;;3.50;99.90;;;;;;5068116;28;20981;-66
2023/04/03 07:46:14;;;;;;;2.57;1.70;;;3.60;99.90;;;;;;5071519;28;20473;-66
2023/04/03 07:48:43;;;;;;;2.83;1.63;;;3.70;99.90;;;;;;5085519;28;20481;-66
2023/04/03 07:51:11;;;;;;;4.80;1.80;;;3.80;99.90;;;;;;5067233;28;20496;-66
2023/04/03 07:53:39;;;;;;;2.50;1.90;;;3.90;99.90;;;;;;5055046;28;20477;-67
2023/04/03 07:56:08;;;;;;;3.50;1.67;;;3.90;99.90;;;;;;5069357;28;20824;-66
2023/04/03 07:58:36;;;;;;;4.10;2.07;;;4.00;99.90;;;;;;5068220;28;20476;-66
2023/04/03 08:01:06;;;;;;;2.03;1.40;;;4.10;99.90;;;;;;5078335;28;20488;-69
2023/04/03 08:03:33;;;;;;;3.27;1.67;;;4.10;99.90;;;;;;5072949;28;22116;-66
2023/04/03 08:06:08;;;;;;;1.40;1.30;;;4.20;99.90;;;;;;5058717;28;21227;-66
2023/04/03 08:08:43;;;;;;;2.60;1.50;;;4.30;99.90;;;;;;5074408;28;20527;-67
2023/04/03 08:11:12;;;;;;;2.47;1.80;;;4.40;99.90;;;;;;5061208;28;20504;-66
2023/04/03 08:13:41;;;;;;;4.00;2.20;;;4.40;99.90;;;;;;5073075;28;20972;-67
2023/04/03 08:16:12;;;;;;;3.20;1.77;;;4.50;99.90;;;;;;5070522;28;20464;-67
2023/04/03 08:18:40;;;;;;;3.37;1.90;;;4.60;99.90;;;;;;5054778;28;20469;-67
2023/04/03 08:21:11;;;;;;;2.20;1.40;;;4.60;99.90;;;;;;5077102;28;20486;-67
2023/04/03 08:23:40;;;;;;;2.70;1.30;;;4.70;99.90;;;;;;5078463;28;20492;-67
2023/04/03 08:26:10;;;;;;;4.97;3.00;;;4.70;99.90;;;;;;5082810;28;20499;-67
2023/04/03 08:28:38;;;;;;;1.77;1.60;;;4.80;99.90;;;;;;5084505;28;20778;-66
2023/04/03 08:31:07;;;;;;;2.80;1.80;;;4.90;99.90;;;;;;5075922;28;20489;-67
2023/04/03 08:33:36;;;;;;;2.63;1.83;;;5.00;99.90;;;;;;5070826;28;20580;-67
2023/04/03 08:36:06;;;;;;;3.47;1.93;;;5.00;99.90;;;;;;5062565;28;20496;-67
2023/04/03 08:38:37;;;;;;;3.70;1.80;;;5.10;99.90;;;;;;5059784;28;20844;-67
2023/04/03 08:41:12;;;;;;;4.93;2.40;;;5.20;99.90;;;;;;5069087;28;20905;-67
2023/04/03 08:44:04;;;;;;;2.90;1.70;;;5.20;99.90;;;;;;5057778;28;20504;-66
2023/04/03 08:46:43;;;;;;;2.17;1.43;;;5.30;99.90;;;;;;5061499;28;20516;-67
2023/04/03 08:49:20;;;;;;;2.40;1.63;;;5.30;99.90;;;;;;5073198;28;20849;-68
2023/04/03 08:51:50;;;;;;;2.00;1.43;;;5.40;99.90;;;;;;5074579;28;20492;-67
2023/04/03 08:54:30;;;;;;;6.13;1.70;;;5.50;99.90;;;;;;5083274;28;20468;-66
2023/04/03 08:57:04;;;;;;;2.97;1.50;;;5.60;99.90;;;;;;5061175;28;20500;-67
2023/04/03 08:59:35;;;;;;;2.70;1.67;;;5.60;99.90;;;;;;5061247;28;21202;-66
2023/04/03 09:02:13;;;;;;;2.73;1.33;;;5.70;99.90;;;;;;5062504;28;20496;-66
2023/04/03 09:04:41;;;;;;;2.67;1.30;;;5.70;99.90;;;;;;5055306;28;20495;-67
2023/04/03 09:07:17;;;;;;;2.80;1.23;;;5.80;99.90;;;;;;5069621;28;20484;-67
2023/04/03 09:09:49;;;;;;;3.57;1.30;;;5.90;99.90;;;;;;5067166;28;20480;-66
2023/04/03 09:12:23;;;;;;;1.50;1.20;;;5.90;99.90;;;;;;5074425;28;20483;-67
2023/04/03 09:15:00;;;;;;;2.90;2.00;;;5.90;99.90;;;;;;5062355;28;20476;-66
2023/04/03 09:17:40;;;;;;;3.60;1.50;;;6.00;99.90;;;;;;5065787;28;20499;-66
2023/04/03 09:20:20;;;;;;;1.97;1.30;;;6.10;99.90;;;;;;5076913;28;20917;-67
2023/04/03 09:22:50;;;;;;;3.27;1.33;;;6.20;99.90;;;;;;5075489;28;20478;-67
2023/04/03 09:25:23;;;;;;;2.40;1.23;;;6.30;99.90;;;;;;5066847;28;20493;-66
2023/04/03 09:27:52;;;;;;;3.57;1.30;;;6.30;99.90;;;;;;5064188;28;20610;-67
2023/04/03 09:30:23;;;;;;;3.60;1.57;;;6.30;99.90;;;;;;5058164;28;20652;-66
2023/04/03 09:32:52;;;;;;;2.30;1.30;;;6.50;99.90;;;;;;5064878;28;20476;-67
2023/04/03 09:35:24;;;;;;;1.43;1.20;;;6.60;99.90;;;;;;5061008;28;20477;-67
2023/04/03 09:38:21;;;;;;;2.90;1.27;;;6.60;99.90;;;;;;5051928;28;21279;-67
2023/04/03 09:40:52;;;;;;;3.83;2.00;;;6.60;99.90;;;;;;5062926;28;20527;-66
2023/04/03 09:43:29;;;;;;;3.50;2.23;;;6.70;99.90;;;;;;5072163;28;20969;-66
2023/04/03 09:46:16;;;;;;;1.93;1.20;;;6.70;99.90;;;;;;5059939;28;21240;-67
2023/04/03 09:48:57;;;;;;;1.90;0.90;;;6.90;99.90;;;;;;5059322;28;20476;-65
2023/04/03 09:51:37;;;;;;;1.50;0.90;;;7.00;99.90;;;;;;5063449;28;20938;-66
2023/04/03 09:54:31;;;;;;;1.00;1.00;;;7.00;99.90;;;;;;5082134;28;20536;-67
2023/04/03 09:57:05;;;;;;;2.47;1.00;;;7.10;99.90;;;;;;5075566;28;20495;-66
2023/04/03 09:59:33;;;;;;;2.17;0.87;;;7.20;99.90;;;;;;5064993;28;20479;-67
2023/04/03 10:02:04;;;;;;;0.70;0.70;;;7.30;99.90;;;;;;5065139;28;20507;-67
2023/04/03 10:04:39;;;;;;;1.20;1.10;;;7.30;84.50;;;;;;5057740;28;20503;-67
2023/04/03 10:07:35;;;;;;;1.47;0.90;;;7.30;97.20;;;;;;5063802;28;20480;-67
2023/04/03 10:10:19;;;;;;;1.43;1.00;;;7.40;99.90;;;;;;5055875;28;20473;-66
2023/04/03 10:12:49;;;;;;;1.50;1.40;;;7.40;99.90;;;;;;5067530;28;20473;-67
2023/04/03 10:15:19;;;;;;;2.63;1.80;;;7.50;99.90;;;;;;5065205;28;21008;-66
2023/04/03 10:17:56;;;;;;;1.37;1.10;;;7.60;99.90;;;;;;5056457;28;20484;-67
2023/04/03 10:20:32;;;;;;;3.10;2.00;;;7.60;97.90;;;;;;5074731;28;20753;-67
2023/04/03 10:23:16;;;;;;;3.03;2.20;;;7.60;94.90;;;;;;5081059;28;20464;-67
2023/04/03 10:25:56;;;;;;;1.23;0.80;;;7.60;99.20;;;;;;5073263;28;20568;-65
2023/04/03 10:28:31;;;;;;;2.20;1.23;;;7.60;99.90;;;;;;5060404;28;20476;-66
2023/04/03 10:31:11;;;;;;;3.33;1.93;;;7.70;99.90;;;;;;5055978;28;20510;-67
2023/04/03 10:33:52;;;;;;;3.40;2.10;;;7.80;93.50;;;;;;5059672;28;20819;-68
2023/04/03 10:36:29;;;;;;;2.70;1.43;;;7.90;98.10;;;;;;5062958;28;20468;-66
2023/04/03 10:39:05;;;;;;;1.57;1.30;;;8.00;99.50;;;;;;5050716;28;20469;-66
2023/04/03 10:41:47;;;;;;;1.80;1.20;;;8.10;99.90;;;;;;5058878;28;21122;-67
2023/04/03 10:44:26;;;;;;;2.50;1.07;;;8.30;99.90;;;;;;5056469;28;20465;-67
2023/04/03 10:47:00;;;;;;;1.07;0.97;;;8.30;98.20;;;;;;5068826;28;20488;-67
2023/04/03 10:49:42;;;;;;;2.23;1.53;;;8.40;95.30;;;;;;5062261;28;20468;-66
2023/04/03 10:52:28;;;;;;;2.63;1.33;;;8.50;99.40;;;;;;5051917;28;22191;-66
2023/04/03 10:55:08;;;;;;;1.50;1.10;;;8.60;95.40;;;;;;5068292;28;20493;-69
2023/04/03 10:57:36;;;;;;;1.90;1.20;;;8.60;87.50;;;;;;5067793;28;20480;-67
2023/04/03 11:00:14;;;;;;;1.63;1.27;;;8.50;94.30;;;;;;5064179;28;20468;-67
2023/04/03 11:03:30;;;;;;;2.13;1.20;;;8.60;93.30;;;;;;5056455;28;20479;-67
2023/04/03 11:06:02;;;;;;;1.80;1.20;;;8.70;98.60;;;;;;5000958;28;21297;-67
2023/04/03 11:08:34;;;;;;;1.77;1.13;;;8.70;98.70;;;;;;4998965;28;20587;-68
2023/04/03 11:11:09;;;;;;;3.23;1.67;;;8.70;95.80;;;;;;4993344;28;20496;-67
2023/04/03 11:13:42;;;;;;;3.77;1.33;;;8.70;93.60;;;;;;4997811;28;21271;-66
2023/04/03 11:16:17;;;;;;;1.33;1.23;;;8.60;99.90;;;;;;5006078;28;20569;-67
2023/04/03 11:18:50;;;;;;;1.80;1.03;;;8.60;99.90;;;;;;4998505;28;20476;-67
2023/04/03 11:21:22;;;;;;;2.70;1.60;;;8.60;99.90;;;;;;4998486;28;21035;-67
2023/04/03 11:23:52;;;;;;;1.73;1.50;;;8.80;99.90;;;;;;4998054;28;20479;-66
2023/04/03 11:26:23;;;;;;;2.37;1.30;;;8.90;99.90;;;;;;5003734;28;20502;-67
2023/04/03 11:28:54;;;;;;;2.20;1.30;;;9.00;99.90;;;;;;5007359;28;20478;-67
2023/04/03 11:31:40;;;;;;;3.27;1.40;;;9.20;99.90;;;;;;4997459;28;21012;-66
2023/04/03 11:34:22;;;;;;;2.10;1.23;;;9.30;99.90;;;;;;4996583;28;20484;-67
2023/04/03 11:36:54;;;;;;;2.63;1.10;;;9.50;97.80;;;;;;5039151;28;20499;-67
2023/04/03 11:39:29;;;;;;;2.70;1.40;;;9.70;96.30;;;;;;5051856;28;20537;-68
2023/04/03 11:42:15;;;;;;;2.10;1.17;;;10.00;99.90;;;;;;5051634;28;21001;-68
2023/04/03 11:44:43;;;;;;;1.77;1.10;;;10.20;96.10;;;;;;5073826;28;20473;-69
2023/04/03 11:47:33;;;;;;;3.40;1.30;;;10.30;96.70;;;;;;5061742;28;21018;-68
2023/04/03 11:50:04;;;;;;;2.60;1.40;;;10.50;97.90;;;;;;5064579;28;21145;-67
2023/04/03 11:52:59;;;;;;;4.70;2.47;;;10.70;65.90;;;;;;5067247;28;20465;-66
2023/04/03 11:55:55;;;;;;;5.80;2.73;;;10.80;63.20;;;;;;5057698;28;21017;-68
2023/04/03 11:58:24;;;;;;;2.53;1.77;;;10.90;63.00;;;;;;5076157;28;20496;-67
2023/04/03 12:01:04;;;;;;;1.70;1.43;;;11.00;59.60;;;;;;5078747;28;20526;-67
2023/04/03 12:03:59;;;;;;;2.07;1.40;;;11.00;60.60;;;;;;5066577;28;20469;-67
2023/04/03 12:06:54;;;;;;;2.90;1.53;;;10.90;62.50;;;;;;5060798;28;21040;-69
2023/04/03 12:09:32;;;;;;;4.00;1.40;;;10.90;66.70;;;;;;5049362;28;21086;-69
2023/04/03 12:12:02;;;;;;;1.43;1.10;;;10.90;66.10;;;;;;5060097;28;21043;-68
2023/04/03 12:14:30;;;;;;;1.90;1.10;;;10.90;85.30;;;;;;5064999;28;20464;-68
2023/04/03 12:16:59;;;;;;;1.83;1.03;;;10.90;71.50;;;;;;5067904;28;20477;-68
2023/04/03 12:19:40;;;;;;;2.67;1.60;;;10.80;77.50;;;;;;5069032;28;20473;-66
2023/04/03 12:22:20;;;;;;;2.27;1.33;;;10.70;83.10;;;;;;5071071;28;20921;-66
2023/04/03 12:24:51;;;;;;;1.80;1.33;;;10.70;81.40;;;;;;5060111;28;20609;-68
2023/04/03 12:27:39;;;;;;;2.00;1.30;;;10.80;71.90;;;;;;5050961;28;21038;-69
2023/04/03 12:30:15;;;;;;;2.10;1.53;;;10.80;58.00;;;;;;5058584;28;20517;-70
2023/04/03 12:32:57;;;;;;;2.57;1.50;;;10.70;58.60;;;;;;5045130;28;22439;-70
2023/04/03 12:35:48;;;;;;;1.17;0.97;;;10.60;62.20;;;;;;5060257;28;20461;-70
2023/04/03 12:38:44;;;;;;;1.17;0.93;;;10.50;65.40;;;;;;5064667;28;20491;-68
2023/04/03 12:41:22;;;;;;;1.77;1.00;;;10.50;63.50;;;;;;5051711;28;20489;-68
2023/04/03 12:44:02;;;;;;;2.07;1.37;;;10.40;62.30;;;;;;5057994;28;20480;-67
2023/04/03 12:46:39;;;;;;;1.57;1.13;;;10.30;61.90;;;;;;5065736;28;20472;-67
2023/04/03 12:49:23;;;;;;;3.27;1.23;;;10.40;62.60;;;;;;5062946;28;20494;-68
2023/04/03 12:51:54;;;;;;;4.23;1.30;;;10.70;64.70;;;;;;5056001;28;22254;-69
2023/04/03 12:54:27;;;;;;;1.47;1.00;;;11.00;55.40;;;;;;5063457;28;20462;-67
2023/04/03 12:57:11;;;;;;;2.00;1.30;;;11.30;58.70;;;;;;5052561;28;20500;-66
2023/04/03 12:59:40;;;;;;;1.53;1.23;;;11.70;76.20;;;;;;5059067;28;20586;-67
2023/04/03 13:02:25;;;;;;;1.93;1.30;;;12.00;69.70;;;;;;5052009;28;20496;-65
2023/04/03 13:04:57;;;;;;;2.47;1.30;;;12.40;67.30;;;;;;5057367;28;20906;-65
2023/04/03 13:07:33;;;;;;;2.60;1.37;;;12.80;56.50;;;;;;5047038;28;20503;-67
2023/04/03 13:10:05;;;;;;;1.90;1.17;;;13.20;49.30;;;;;;5057877;28;20476;-67
2023/04/03 13:12:33;;;;;;;2.37;1.20;;;13.70;51.20;;;;;;5067001;28;20471;-65
2023/04/03 13:15:12;;;;;;;3.80;1.07;;;14.20;49.50;;;;;;5075956;28;20472;-66
2023/04/03 13:17:40;;;;;;;1.73;1.20;;;14.30;42.80;;;;;;5066635;28;20487;-65
2023/04/03 13:20:18;;;;;;;3.37;1.33;;;14.40;44.30;;;;;;5072264;28;20508;-64
2023/04/03 13:22:54;;;;;;;2.73;1.67;;;15.40;44.80;;;;;;5078889;28;20464;-65